createdAt,value
2019-03-03T00:00:34.807Z,79.38
2019-03-03T00:01:34.819Z,79.42
2019-03-03T00:02:34.798Z,79.11
2019-03-03T00:03:34.821Z,79.03
2019-03-03T00:04:34.816Z,79.11
2019-03-03T00:05:34.800Z,79.2
2019-03-03T00:06:34.786Z,79.13
2019-03-03T00:07:34.798Z,79.04
2019-03-03T00:08:34.788Z,79.13
2019-03-03T00:09:34.782Z,79.19
2019-03-03T00:10:34.769Z,79.27
2019-03-03T00:11:34.786Z,79.28
2019-03-03T00:12:34.784Z,79.31
2019-03-03T00:13:34.814Z,79.3
2019-03-03T00:14:34.790Z,79.19
2019-03-03T00:15:34.760Z,79.17
2019-03-03T00:16:34.795Z,79.1
2019-03-03T00:17:34.768Z,79.06
2019-03-03T00:18:34.768Z,79.22
2019-03-03T00:19:34.774Z,79.19
2019-03-03T00:20:34.777Z,79.02
2019-03-03T00:21:34.772Z,78.92
2019-03-03T00:22:34.792Z,78.73
2019-03-03T00:23:34.778Z,78.86
2019-03-03T00:24:34.767Z,78.81
2019-03-03T00:25:34.794Z,78.91
2019-03-03T00:26:35.047Z,78.97
2019-03-03T00:27:34.843Z,78.79
2019-03-03T00:28:34.760Z,78.79
2019-03-03T00:29:34.783Z,78.94
2019-03-03T00:30:34.759Z,78.89
2019-03-03T00:31:34.786Z,78.81
2019-03-03T00:32:34.788Z,78.89
2019-03-03T00:33:34.767Z,79.02
2019-03-03T00:34:34.753Z,78.99
2019-03-03T00:35:34.763Z,78.92
2019-03-03T00:36:34.803Z,78.97
2019-03-03T00:37:34.744Z,79.07
2019-03-03T00:38:34.749Z,78.98
2019-03-03T00:39:34.745Z,79.01
2019-03-03T00:40:34.760Z,79.02
2019-03-03T00:41:34.728Z,78.97
2019-03-03T00:42:34.746Z,79.02
2019-03-03T00:43:34.812Z,78.94
2019-03-03T00:44:34.764Z,78.88
2019-03-03T00:45:34.750Z,78.91
2019-03-03T00:46:34.746Z,78.86
2019-03-03T00:47:34.720Z,78.84
2019-03-03T00:48:34.771Z,78.82
2019-03-03T00:49:34.734Z,78.9
2019-03-03T00:50:34.723Z,78.83
2019-03-03T00:51:34.730Z,78.62
2019-03-03T00:52:34.716Z,78.6
2019-03-03T00:53:34.746Z,78.81
2019-03-03T00:54:34.713Z,78.5
2019-03-03T00:55:34.728Z,78.54
2019-03-03T00:56:34.720Z,78.69
2019-03-03T00:57:34.710Z,78.65
2019-03-03T00:58:34.739Z,78.44
2019-03-03T00:59:34.704Z,78.67
2019-03-03T01:00:34.705Z,78.75
2019-03-03T01:01:34.739Z,78.63
2019-03-03T01:02:34.725Z,78.78
2019-03-03T01:03:34.733Z,78.82
2019-03-03T01:04:34.714Z,78.95
2019-03-03T01:05:34.713Z,78.87
2019-03-03T01:06:34.697Z,78.68
2019-03-03T01:07:34.715Z,78.92
2019-03-03T01:08:34.691Z,78.91
2019-03-03T01:09:35.034Z,78.83
2019-03-03T01:10:34.724Z,78.87
2019-03-03T01:11:34.709Z,78.84
2019-03-03T01:12:34.702Z,78.99
2019-03-03T01:13:34.693Z,78.84
2019-03-03T01:14:34.701Z,78.94
2019-03-03T01:15:34.719Z,78.88
2019-03-03T01:16:34.717Z,78.97
2019-03-03T01:17:34.772Z,78.73
2019-03-03T01:18:34.705Z,78.63
2019-03-03T01:19:34.691Z,78.71
2019-03-03T01:20:34.669Z,78.72
2019-03-03T01:21:34.675Z,78.63
2019-03-03T01:22:34.686Z,78.92
2019-03-03T01:23:34.688Z,79.01
2019-03-03T01:24:34.680Z,79.07
2019-03-03T01:25:34.670Z,78.72
2019-03-03T01:26:34.676Z,79.03
2019-03-03T01:27:34.669Z,79.03
2019-03-03T01:28:34.692Z,78.76
2019-03-03T01:29:34.705Z,78.71
2019-03-03T01:30:34.685Z,78.72
2019-03-03T01:31:34.807Z,78.36
2019-03-03T01:32:34.680Z,78.46
2019-03-03T01:33:34.704Z,78.62
2019-03-03T01:34:34.682Z,78.55
2019-03-03T01:35:34.701Z,78.54
2019-03-03T01:36:34.670Z,78.55
2019-03-03T01:37:34.659Z,78.36
2019-03-03T01:38:34.667Z,78.46
2019-03-03T01:39:34.666Z,78.29
2019-03-03T01:40:34.661Z,78.41
2019-03-03T01:41:34.646Z,78.34
2019-03-03T01:42:34.649Z,78.39
2019-03-03T01:43:34.659Z,78.41
2019-03-03T01:44:34.648Z,78.22
2019-03-03T01:45:34.645Z,78.37
2019-03-03T01:46:34.682Z,78.38
2019-03-03T01:47:34.640Z,78.46
2019-03-03T01:48:34.647Z,78.36
2019-03-03T01:49:34.632Z,78.27
2019-03-03T01:50:34.645Z,78.5
2019-03-03T01:51:34.640Z,78.54
2019-03-03T01:52:34.628Z,78.27
2019-03-03T01:53:34.785Z,78.49
2019-03-03T01:54:34.703Z,78.44
2019-03-03T01:55:34.657Z,78.46
2019-03-03T01:56:34.687Z,78.24
2019-03-03T01:57:34.607Z,78.37
2019-03-03T01:58:34.631Z,78.43
2019-03-03T01:59:34.651Z,78.18
2019-03-03T02:00:34.628Z,78.28
2019-03-03T02:01:34.651Z,78.28
2019-03-03T02:02:34.664Z,78.14
2019-03-03T02:03:34.600Z,78.36
2019-03-03T02:04:34.621Z,78.34
2019-03-03T02:05:34.611Z,78.37
2019-03-03T02:06:34.620Z,78.46
2019-03-03T02:07:34.606Z,78.48
2019-03-03T02:08:34.611Z,78.23
2019-03-03T02:09:34.615Z,78.2
2019-03-03T02:10:34.599Z,78.11
2019-03-03T02:11:34.604Z,77.95
2019-03-03T02:12:34.650Z,78.12
2019-03-03T02:13:34.648Z,78.27
2019-03-03T02:14:34.637Z,78.17
2019-03-03T02:15:34.628Z,78.08
2019-03-03T02:16:34.598Z,77.97
2019-03-03T02:17:34.620Z,78.08
2019-03-03T02:18:34.599Z,78.31
2019-03-03T02:19:34.602Z,78.34
2019-03-03T02:20:34.619Z,78.32
2019-03-03T02:21:34.582Z,78.08
2019-03-03T02:22:34.602Z,78.11
2019-03-03T02:23:34.764Z,78.21
2019-03-03T02:24:34.735Z,78.01
2019-03-03T02:25:34.627Z,78.08
2019-03-03T02:26:34.627Z,78.33
2019-03-03T02:27:34.581Z,78.19
2019-03-03T02:28:34.585Z,78.17
2019-03-03T02:29:34.595Z,78.11
2019-03-03T02:30:34.605Z,77.86
2019-03-03T02:31:34.580Z,78.11
2019-03-03T02:32:34.613Z,78.19
2019-03-03T02:33:34.589Z,78.09
2019-03-03T02:34:34.609Z,78.04
2019-03-03T02:35:34.575Z,77.86
2019-03-03T02:36:34.633Z,77.92
2019-03-03T02:37:34.617Z,78.02
2019-03-03T02:38:34.555Z,78.06
2019-03-03T02:39:34.603Z,78.19
2019-03-03T02:40:34.600Z,78.18
2019-03-03T02:41:34.577Z,78.22
2019-03-03T02:42:34.571Z,78.01
2019-03-03T02:43:34.554Z,78.17
2019-03-03T02:44:34.584Z,78.41
2019-03-03T02:45:34.548Z,78.35
2019-03-03T02:46:35.813Z,78.28
2019-03-03T02:47:34.575Z,77.8
2019-03-03T02:48:34.569Z,77.96
2019-03-03T02:49:34.614Z,77.98
2019-03-03T02:50:34.587Z,78.04
2019-03-03T02:51:34.568Z,78.01
2019-03-03T02:52:34.574Z,77.71
2019-03-03T02:53:34.623Z,77.84
2019-03-03T02:54:34.579Z,77.96
2019-03-03T02:55:34.561Z,78.09
2019-03-03T02:56:34.565Z,78.12
2019-03-03T02:57:34.551Z,78.04
2019-03-03T02:58:34.553Z,78.15
2019-03-03T02:59:34.562Z,78.05
2019-03-03T03:00:34.860Z,77.92
2019-03-03T03:01:34.562Z,77.94
2019-03-03T03:02:34.539Z,78
2019-03-03T03:03:34.556Z,78.03
2019-03-03T03:04:34.541Z,78.09
2019-03-03T03:05:34.552Z,78.09
2019-03-03T03:06:34.582Z,78.15
2019-03-03T03:07:34.842Z,78.03
2019-03-03T03:08:34.625Z,78.12
2019-03-03T03:09:34.561Z,78.02
2019-03-03T03:10:34.540Z,78
2019-03-03T03:11:34.532Z,77.8
2019-03-03T03:12:34.547Z,77.96
2019-03-03T03:13:34.554Z,77.95
2019-03-03T03:14:34.532Z,77.93
2019-03-03T03:15:34.536Z,77.88
2019-03-03T03:16:34.567Z,77.91
2019-03-03T03:17:34.535Z,77.89
2019-03-03T03:18:34.503Z,77.67
2019-03-03T03:19:34.548Z,77.72
2019-03-03T03:20:34.552Z,77.82
2019-03-03T03:21:34.500Z,77.77
2019-03-03T03:22:34.525Z,77.81
2019-03-03T03:23:34.629Z,77.75
2019-03-03T03:24:34.514Z,77.71
2019-03-03T03:25:34.526Z,77.7
2019-03-03T03:26:34.560Z,77.77
2019-03-03T03:27:34.526Z,77.84
2019-03-03T03:28:34.511Z,77.71
2019-03-03T03:29:34.974Z,77.58
2019-03-03T03:30:34.570Z,77.54
2019-03-03T03:31:34.527Z,77.35
2019-03-03T03:32:34.506Z,77.34
2019-03-03T03:33:34.559Z,77.38
2019-03-03T03:34:34.566Z,77.34
2019-03-03T03:35:34.505Z,77.33
2019-03-03T03:36:37.236Z,77.26
2019-03-03T03:37:34.532Z,77.3
2019-03-03T03:38:34.487Z,77.16
2019-03-03T03:39:34.514Z,77.15
2019-03-03T03:40:34.501Z,76.96
2019-03-03T03:41:34.504Z,76.89
2019-03-03T03:42:34.494Z,76.9
2019-03-03T03:43:34.514Z,77
2019-03-03T03:44:34.496Z,77.21
2019-03-03T03:45:34.516Z,77.16
2019-03-03T03:46:34.471Z,76.99
2019-03-03T03:47:34.507Z,76.94
2019-03-03T03:48:34.483Z,77.13
2019-03-03T03:49:34.477Z,77.16
2019-03-03T03:50:34.506Z,77.01
2019-03-03T03:51:34.552Z,77.01
2019-03-03T03:52:34.535Z,77.15
2019-03-03T03:53:34.536Z,76.98
2019-03-03T03:54:34.515Z,77.04
2019-03-03T03:55:34.479Z,77.06
2019-03-03T03:56:34.491Z,77.01
2019-03-03T03:57:34.458Z,77.14
2019-03-03T03:58:34.491Z,76.98
2019-03-03T03:59:34.493Z,76.99
2019-03-03T04:00:34.487Z,76.96
2019-03-03T04:01:34.587Z,76.83
2019-03-03T04:02:34.517Z,76.89
2019-03-03T04:03:34.464Z,76.92
2019-03-03T04:04:34.472Z,76.97
2019-03-03T04:05:34.474Z,76.95
2019-03-03T04:06:34.471Z,76.95
2019-03-03T04:07:34.452Z,76.95
2019-03-03T04:08:34.470Z,76.96
2019-03-03T04:09:34.477Z,76.94
2019-03-03T04:10:34.439Z,77.01
2019-03-03T04:11:34.446Z,76.97
2019-03-03T04:12:34.482Z,76.89
2019-03-03T04:13:34.593Z,77
2019-03-03T04:14:35.071Z,77.05
2019-03-03T04:15:34.432Z,77
2019-03-03T04:16:34.470Z,77.06
2019-03-03T04:17:34.453Z,77.06
2019-03-03T04:18:34.463Z,77.2
2019-03-03T04:19:34.470Z,77.24
2019-03-03T04:20:34.443Z,77.31
2019-03-03T04:21:34.442Z,77.39
2019-03-03T04:22:34.450Z,77.4
2019-03-03T04:23:34.429Z,77.26
2019-03-03T04:24:34.461Z,77.21
2019-03-03T04:25:34.432Z,77.39
2019-03-03T04:26:34.438Z,77.39
2019-03-03T04:27:34.434Z,77.45
2019-03-03T04:28:34.453Z,77.42
2019-03-03T04:29:34.436Z,77.45
2019-03-03T04:30:34.439Z,77.38
2019-03-03T04:31:34.439Z,77.59
2019-03-03T04:32:34.418Z,77.65
2019-03-03T04:33:34.398Z,77.7
2019-03-03T04:34:34.406Z,77.65
2019-03-03T04:35:34.409Z,77.74
2019-03-03T04:36:34.428Z,77.83
2019-03-03T04:37:34.424Z,77.81
2019-03-03T04:38:34.398Z,77.82
2019-03-03T04:39:34.410Z,77.89
2019-03-03T04:40:34.403Z,77.9
2019-03-03T04:41:34.399Z,78.03
2019-03-03T04:42:34.411Z,77.93
2019-03-03T04:43:34.410Z,77.89
2019-03-03T04:44:34.413Z,77.75
2019-03-03T04:45:34.403Z,78.05
2019-03-03T04:46:34.434Z,78.01
2019-03-03T04:47:34.405Z,77.95
2019-03-03T04:48:34.444Z,78.05
2019-03-03T04:49:34.472Z,77.91
2019-03-03T04:50:34.404Z,77.98
2019-03-03T04:51:34.406Z,78.06
2019-03-03T04:52:34.394Z,78.1
2019-03-03T04:53:34.424Z,78.13
2019-03-03T04:54:34.395Z,77.87
2019-03-03T04:55:34.410Z,77.9
2019-03-03T04:56:34.375Z,77.97
2019-03-03T04:57:34.413Z,77.87
2019-03-03T04:58:34.523Z,78.02
2019-03-03T04:59:34.465Z,78.1
2019-03-03T05:00:34.399Z,77.84
2019-03-03T05:01:34.406Z,77.6
2019-03-03T05:02:34.392Z,78.01
2019-03-03T05:03:34.391Z,77.95
2019-03-03T05:04:34.393Z,77.92
2019-03-03T05:05:34.375Z,78.07
2019-03-03T05:06:34.419Z,77.99
2019-03-03T05:07:34.395Z,77.88
2019-03-03T05:08:34.418Z,77.99
2019-03-03T05:09:34.384Z,78
2019-03-03T05:10:34.392Z,77.98
2019-03-03T05:11:34.372Z,78.12
2019-03-03T05:12:34.380Z,77.94
2019-03-03T05:13:34.459Z,77.94
2019-03-03T05:14:34.384Z,77.96
2019-03-03T05:15:34.376Z,78.02
2019-03-03T05:16:34.411Z,77.9
2019-03-03T05:17:34.370Z,78.18
2019-03-03T05:18:34.367Z,78.16
2019-03-03T05:19:34.353Z,78.15
2019-03-03T05:20:34.364Z,78.13
2019-03-03T05:21:34.678Z,78.19
2019-03-03T05:22:34.337Z,78.1
2019-03-03T05:23:34.353Z,78.1
2019-03-03T05:24:34.857Z,78
2019-03-03T05:25:34.350Z,77.83
2019-03-03T05:26:34.363Z,77.96
2019-03-03T05:27:34.359Z,77.71
2019-03-03T05:28:34.353Z,77.81
2019-03-03T05:29:34.364Z,77.86
2019-03-03T05:30:34.341Z,77.76
2019-03-03T05:31:34.335Z,77.88
2019-03-03T05:32:34.349Z,77.63
2019-03-03T05:33:34.329Z,77.31
2019-03-03T05:34:34.337Z,77.42
2019-03-03T05:35:34.359Z,77.64
2019-03-03T05:36:34.348Z,77.45
2019-03-03T05:37:34.356Z,77.54
2019-03-03T05:38:34.405Z,77.67
2019-03-03T05:39:34.346Z,77.76
2019-03-03T05:40:34.350Z,77.69
2019-03-03T05:41:34.329Z,77.69
2019-03-03T05:42:34.330Z,77.6
2019-03-03T05:43:34.531Z,77.62
2019-03-03T05:44:34.326Z,77.36
2019-03-03T05:45:34.303Z,77.46
2019-03-03T05:46:34.310Z,77.55
2019-03-03T05:47:34.375Z,77.35
2019-03-03T05:48:34.347Z,77.37
2019-03-03T05:49:34.295Z,77.33
2019-03-03T05:50:34.312Z,77.32
2019-03-03T05:51:34.305Z,77.51
2019-03-03T05:52:34.338Z,77.42
2019-03-03T05:53:34.306Z,77.61
2019-03-03T05:54:34.304Z,77.52
2019-03-03T05:55:34.316Z,77.48
2019-03-03T05:56:34.289Z,77.53
2019-03-03T05:57:34.316Z,77.45
2019-03-03T05:58:34.286Z,77.54
2019-03-03T05:59:34.298Z,77.67
2019-03-03T06:00:34.360Z,77.6
2019-03-03T06:01:34.515Z,77.68
2019-03-03T06:02:34.300Z,77.66
2019-03-03T06:03:34.298Z,77.65
2019-03-03T06:04:34.320Z,77.53
2019-03-03T06:05:34.368Z,77.68
2019-03-03T06:06:34.365Z,77.84
2019-03-03T06:07:34.282Z,77.87
2019-03-03T06:08:34.290Z,77.66
2019-03-03T06:09:34.280Z,77.6
2019-03-03T06:10:34.272Z,77.47
2019-03-03T06:11:34.285Z,77.42
2019-03-03T06:12:34.283Z,77.3
2019-03-03T06:13:34.288Z,77.27
2019-03-03T06:14:34.294Z,76.98
2019-03-03T06:15:34.327Z,76.96
2019-03-03T06:16:34.281Z,76.88
2019-03-03T06:17:34.263Z,77.08
2019-03-03T06:18:34.296Z,77.27
2019-03-03T06:19:34.290Z,76.9
2019-03-03T06:20:34.265Z,76.94
2019-03-03T06:21:34.271Z,76.81
2019-03-03T06:22:34.272Z,76.8
2019-03-03T06:23:34.265Z,76.79
2019-03-03T06:24:34.269Z,76.63
2019-03-03T06:25:34.270Z,76.43
2019-03-03T06:26:34.261Z,76.45
2019-03-03T06:27:34.319Z,76.53
2019-03-03T06:28:34.267Z,76.49
2019-03-03T06:29:34.274Z,76.54
2019-03-03T06:30:34.281Z,76.43
2019-03-03T06:31:34.244Z,76.37
2019-03-03T06:32:34.258Z,76.21
2019-03-03T06:33:34.260Z,76.21
2019-03-03T06:34:34.249Z,76.26
2019-03-03T06:35:34.257Z,76.08
2019-03-03T06:36:34.257Z,76.06
2019-03-03T06:37:34.245Z,76.18
2019-03-03T06:38:34.241Z,76.06
2019-03-03T06:39:34.314Z,76.07
2019-03-03T06:40:34.246Z,75.3
2019-03-03T06:41:34.237Z,75.17
2019-03-03T06:42:34.266Z,75.32
2019-03-03T06:43:34.237Z,75.35
2019-03-03T06:44:34.258Z,75.53
2019-03-03T06:45:34.234Z,75.37
2019-03-03T06:46:34.234Z,75.26
2019-03-03T06:47:34.232Z,75.21
2019-03-03T06:48:34.232Z,75.34
2019-03-03T06:49:34.361Z,75.36
2019-03-03T06:50:34.255Z,75.34
2019-03-03T06:51:34.323Z,75.08
2019-03-03T06:52:34.245Z,75.22
2019-03-03T06:53:34.221Z,74.83
2019-03-03T06:54:34.243Z,74.6
2019-03-03T06:55:34.236Z,74.73
2019-03-03T06:56:34.242Z,74.61
2019-03-03T06:57:34.235Z,74.67
2019-03-03T06:58:34.211Z,74.62
2019-03-03T06:59:34.254Z,74.67
2019-03-03T07:00:34.208Z,74.8
2019-03-03T07:01:34.229Z,74.99
2019-03-03T07:02:34.198Z,74.91
2019-03-03T07:03:34.224Z,74.89
2019-03-03T07:04:34.205Z,74.91
2019-03-03T07:05:34.207Z,74.9
2019-03-03T07:06:34.208Z,74.63
2019-03-03T07:07:34.213Z,74.63
2019-03-03T07:08:34.236Z,74.56
2019-03-03T07:09:34.230Z,74.65
2019-03-03T07:10:34.223Z,74.67
2019-03-03T07:11:34.284Z,74.67
2019-03-03T07:12:34.198Z,74.76
2019-03-03T07:13:34.231Z,74.92
2019-03-03T07:14:34.195Z,74.97
2019-03-03T07:15:34.207Z,74.55
2019-03-03T07:16:34.186Z,74.65
2019-03-03T07:17:34.203Z,74.74
2019-03-03T07:18:34.196Z,74.82
2019-03-03T07:19:34.189Z,74.99
2019-03-03T07:20:34.197Z,74.96
2019-03-03T07:21:34.194Z,75.04
2019-03-03T07:22:34.180Z,75.1
2019-03-03T07:23:34.189Z,75.04
2019-03-03T07:24:34.181Z,75.08
2019-03-03T07:25:34.170Z,75.09
2019-03-03T07:26:34.202Z,75.13
2019-03-03T07:27:34.216Z,75.06
2019-03-03T07:28:34.174Z,74.53
2019-03-03T07:29:34.173Z,74.71
2019-03-03T07:30:34.175Z,74.78
2019-03-03T07:31:34.192Z,74.88
2019-03-03T07:32:34.242Z,74.92
2019-03-03T07:33:34.421Z,74.94
2019-03-03T07:34:34.181Z,74.95
2019-03-03T07:35:34.182Z,74.92
2019-03-03T07:36:34.238Z,74.95
2019-03-03T07:37:34.159Z,74.95
2019-03-03T07:38:34.168Z,75.03
2019-03-03T07:39:34.170Z,74.96
2019-03-03T07:40:34.159Z,75.04
2019-03-03T07:41:34.197Z,75.09
2019-03-03T07:42:34.163Z,75
2019-03-03T07:43:34.145Z,74.91
2019-03-03T07:44:34.140Z,74.96
2019-03-03T07:45:34.158Z,74.99
2019-03-03T07:46:34.152Z,74.84
2019-03-03T07:47:34.141Z,74.72
2019-03-03T07:48:34.156Z,74.62
2019-03-03T07:49:34.154Z,74.44
2019-03-03T07:50:34.164Z,74.36
2019-03-03T07:51:34.171Z,74.26
2019-03-03T07:52:34.158Z,74.24
2019-03-03T07:53:34.144Z,73.7
2019-03-03T07:54:34.156Z,73.78
2019-03-03T07:55:34.224Z,73.83
2019-03-03T07:56:34.143Z,73.82
2019-03-03T07:57:34.166Z,73.53
2019-03-03T07:58:34.151Z,73.54
2019-03-03T07:59:34.134Z,73.56
2019-03-03T08:00:34.158Z,73.37
2019-03-03T08:01:34.153Z,73
2019-03-03T08:02:34.164Z,72.64
2019-03-03T08:03:34.130Z,72.38
2019-03-03T08:04:34.118Z,72.27
2019-03-03T08:05:34.153Z,72.27
2019-03-03T08:06:34.180Z,72.16
2019-03-03T08:07:34.125Z,72.42
2019-03-03T08:08:34.124Z,72.11
2019-03-03T08:09:34.119Z,71.84
2019-03-03T08:10:34.131Z,71.82
2019-03-03T08:11:34.110Z,71.49
2019-03-03T08:12:34.126Z,71.38
2019-03-03T08:13:34.141Z,71.61
2019-03-03T08:14:34.119Z,71.75
2019-03-03T08:15:34.159Z,71.88
2019-03-03T08:16:34.117Z,72
2019-03-03T08:17:34.160Z,71.53
2019-03-03T08:18:34.108Z,71.68
2019-03-03T08:19:34.119Z,71.78
2019-03-03T08:20:34.133Z,71.85
2019-03-03T08:21:34.091Z,71.72
2019-03-03T08:22:34.208Z,71.45
2019-03-03T08:23:34.122Z,71.09
2019-03-03T08:24:34.085Z,71.13
2019-03-03T08:25:34.120Z,71.43
2019-03-03T08:26:34.107Z,71.63
2019-03-03T08:27:34.127Z,71.69
2019-03-03T08:28:34.141Z,71.77
2019-03-03T08:29:34.139Z,71.85
2019-03-03T08:30:34.108Z,71.7
2019-03-03T08:31:34.104Z,71.8
2019-03-03T08:32:34.160Z,71.78
2019-03-03T08:33:34.143Z,71.74
2019-03-03T08:34:34.102Z,71.91
2019-03-03T08:35:34.102Z,71.93
2019-03-03T08:36:34.149Z,72.04
2019-03-03T08:37:34.099Z,72.25
2019-03-03T08:38:34.142Z,71.72
2019-03-03T08:39:34.353Z,71.78
2019-03-03T08:40:34.085Z,71.55
2019-03-03T08:41:34.297Z,71.7
2019-03-03T08:42:34.093Z,71.99
2019-03-03T08:43:34.114Z,72.05
2019-03-03T08:44:34.119Z,72.16
2019-03-03T08:45:34.076Z,71.94
2019-03-03T08:46:34.289Z,71.85
2019-03-03T08:47:34.133Z,71.88
2019-03-03T08:48:34.071Z,71.79
2019-03-03T08:49:34.083Z,71.64
2019-03-03T08:50:34.070Z,71.77
2019-03-03T08:51:34.083Z,71.58
2019-03-03T08:52:34.062Z,71.7
2019-03-03T08:53:34.133Z,71.72
2019-03-03T08:54:34.112Z,71.65
2019-03-03T08:55:34.051Z,71.61
2019-03-03T08:56:34.056Z,71.7
2019-03-03T08:57:34.070Z,71.84
2019-03-03T08:58:34.078Z,71.72
2019-03-03T08:59:34.055Z,71.81
2019-03-03T09:00:34.060Z,71.98
2019-03-03T09:01:34.086Z,71.84
2019-03-03T09:02:34.074Z,71.41
2019-03-03T09:03:34.024Z,71.37
2019-03-03T09:04:34.073Z,71.48
2019-03-03T09:05:34.038Z,71.57
2019-03-03T09:06:34.042Z,71.64
2019-03-03T09:07:34.059Z,71.82
2019-03-03T09:08:34.058Z,71.88
2019-03-03T09:09:34.035Z,71.87
2019-03-03T09:10:34.035Z,71.73
2019-03-03T09:11:34.044Z,71.63
2019-03-03T09:12:34.287Z,71.64
2019-03-03T09:13:34.054Z,71.69
2019-03-03T09:14:34.078Z,71.48
2019-03-03T09:15:34.038Z,71.35
2019-03-03T09:16:34.085Z,71.44
2019-03-03T09:17:34.080Z,71.66
2019-03-03T09:18:34.116Z,71.7
2019-03-03T09:19:34.025Z,71.47
2019-03-03T09:20:34.006Z,71.05
2019-03-03T09:21:34.106Z,71.22
2019-03-03T09:22:34.021Z,71.41
2019-03-03T09:23:34.040Z,71.45
2019-03-03T09:24:34.009Z,71.52
2019-03-03T09:25:34.032Z,71.33
2019-03-03T09:26:34.028Z,71.38
2019-03-03T09:27:34.021Z,71.4
2019-03-03T09:28:34.268Z,71.36
2019-03-03T09:29:34.279Z,71.07
2019-03-03T09:30:34.012Z,71.15
2019-03-03T09:31:34.027Z,70.94
2019-03-03T09:32:34.039Z,71.05
2019-03-03T09:33:33.995Z,70.84
2019-03-03T09:34:34.009Z,70.67
2019-03-03T09:35:34.000Z,70.69
2019-03-03T09:36:34.003Z,70.82
2019-03-03T09:37:34.012Z,70.61
2019-03-03T09:38:34.006Z,70.54
2019-03-03T09:39:34.023Z,70.51
2019-03-03T09:40:34.067Z,70.58
2019-03-03T09:41:34.012Z,70.73
2019-03-03T09:42:34.013Z,70.82
2019-03-03T09:43:34.018Z,71.09
2019-03-03T09:44:33.997Z,71.09
2019-03-03T09:45:34.007Z,71.21
2019-03-03T09:46:34.007Z,71.05
2019-03-03T09:47:33.988Z,70.96
2019-03-03T09:48:33.964Z,70.24
2019-03-03T09:49:34.045Z,70.58
2019-03-03T09:50:34.019Z,70.79
2019-03-03T09:51:33.969Z,70.83
2019-03-03T09:52:33.971Z,70.84
2019-03-03T09:53:33.971Z,70.84
2019-03-03T09:54:33.984Z,70.75
2019-03-03T09:55:33.987Z,70.85
2019-03-03T09:56:34.016Z,70.99
2019-03-03T09:57:33.949Z,70.96
2019-03-03T09:58:33.954Z,70.94
2019-03-03T09:59:33.969Z,71.04
2019-03-03T10:00:33.988Z,70.88
2019-03-03T10:01:33.975Z,70.76
2019-03-03T10:02:33.975Z,70.7
2019-03-03T10:03:33.954Z,70.75
2019-03-03T10:04:33.946Z,70.9
2019-03-03T10:05:33.989Z,71.02
2019-03-03T10:06:34.212Z,71
2019-03-03T10:07:34.129Z,71.04
2019-03-03T10:08:33.942Z,70.8
2019-03-03T10:09:33.962Z,70.56
2019-03-03T10:10:33.998Z,70.58
2019-03-03T10:11:33.937Z,70.91
2019-03-03T10:12:33.988Z,70.91
2019-03-03T10:13:33.944Z,70.57
2019-03-03T10:14:33.962Z,70.5
2019-03-03T10:15:33.965Z,70.64
2019-03-03T10:16:34.037Z,70.34
2019-03-03T10:17:33.957Z,70.2
2019-03-03T10:18:33.969Z,70.45
2019-03-03T10:19:33.968Z,70.51
2019-03-03T10:20:33.953Z,70.51
2019-03-03T10:21:33.934Z,70.69
2019-03-03T10:22:33.960Z,70.64
2019-03-03T10:23:33.942Z,70.62
2019-03-03T10:24:33.944Z,70.39
2019-03-03T10:25:33.933Z,70.62
2019-03-03T10:26:35.272Z,70.51
2019-03-03T10:27:33.958Z,70.52
2019-03-03T10:28:33.963Z,70.27
2019-03-03T10:29:34.304Z,70.43
2019-03-03T10:30:33.966Z,70.62
2019-03-03T10:31:33.978Z,70.82
2019-03-03T10:32:33.951Z,70.84
2019-03-03T10:33:33.941Z,70.96
2019-03-03T10:34:33.962Z,70.89
2019-03-03T10:35:33.959Z,70.93
2019-03-03T10:36:33.921Z,71
2019-03-03T10:37:33.960Z,70.82
2019-03-03T10:38:36.570Z,70.52
2019-03-03T10:39:33.906Z,70.46
2019-03-03T10:40:33.927Z,70.5
2019-03-03T10:41:33.981Z,70.61
2019-03-03T10:42:33.911Z,70.84
2019-03-03T10:43:33.915Z,70.9
2019-03-03T10:44:33.977Z,70.73
2019-03-03T10:45:33.951Z,70.45
2019-03-03T10:46:33.919Z,70.52
2019-03-03T10:47:33.917Z,70.48
2019-03-03T10:48:33.900Z,70.37
2019-03-03T10:49:33.900Z,70.37
2019-03-03T10:50:33.955Z,70.19
2019-03-03T10:51:33.904Z,70.31
2019-03-03T10:52:33.968Z,70.17
2019-03-03T10:53:33.901Z,70.2
2019-03-03T10:54:33.896Z,70.4
2019-03-03T10:55:33.915Z,70.3
2019-03-03T10:56:33.905Z,70.52
2019-03-03T10:57:34.003Z,70.48
2019-03-03T10:58:33.889Z,70.07
2019-03-03T10:59:33.997Z,70.28
2019-03-03T11:00:33.888Z,70.38
2019-03-03T11:01:33.936Z,70.39
2019-03-03T11:02:33.894Z,70.44
2019-03-03T11:03:33.893Z,70.25
2019-03-03T11:04:33.907Z,69.93
2019-03-03T11:05:33.890Z,69.87
2019-03-03T11:06:33.892Z,69.95
2019-03-03T11:07:33.877Z,70.14
2019-03-03T11:08:33.893Z,70.25
2019-03-03T11:09:33.888Z,70.3
2019-03-03T11:10:33.900Z,69.89
2019-03-03T11:11:33.901Z,69.95
2019-03-03T11:12:33.988Z,70.03
2019-03-03T11:13:33.915Z,70.2
2019-03-03T11:14:33.877Z,70.21
2019-03-03T11:15:33.884Z,70.2
2019-03-03T11:16:33.873Z,70.32
2019-03-03T11:17:33.883Z,70.16
2019-03-03T11:18:33.872Z,70.2
2019-03-03T11:19:33.924Z,70.19
2019-03-03T11:20:33.887Z,70.06
2019-03-03T11:21:33.906Z,70.06
2019-03-03T11:22:33.957Z,70.19
2019-03-03T11:23:33.932Z,70.06
2019-03-03T11:24:33.872Z,70.19
2019-03-03T11:25:33.845Z,70.33
2019-03-03T11:26:33.848Z,70.53
2019-03-03T11:27:33.881Z,70.4
2019-03-03T11:28:33.878Z,70.5
2019-03-03T11:29:33.872Z,70.48
2019-03-03T11:30:33.864Z,70.28
2019-03-03T11:31:33.872Z,70.09
2019-03-03T11:32:33.872Z,70.15
2019-03-03T11:33:33.854Z,70.15
2019-03-03T11:34:33.904Z,70.18
2019-03-03T11:35:33.847Z,70.41
2019-03-03T11:36:33.898Z,70.34
2019-03-03T11:37:33.849Z,70.2
2019-03-03T11:38:33.842Z,70.27
2019-03-03T11:39:33.853Z,69.84
2019-03-03T11:40:33.853Z,69.98
2019-03-03T11:41:33.911Z,69.87
2019-03-03T11:42:33.879Z,69.85
2019-03-03T11:43:33.859Z,70
2019-03-03T11:44:33.915Z,69.97
2019-03-03T11:45:33.901Z,69.86
2019-03-03T11:46:33.881Z,69.71
2019-03-03T11:47:33.833Z,69.64
2019-03-03T11:48:33.871Z,69.66
2019-03-03T11:49:33.825Z,69.64
2019-03-03T11:50:33.823Z,69.57
2019-03-03T11:51:33.876Z,69.55
2019-03-03T11:52:33.966Z,69.75
2019-03-03T11:53:33.852Z,69.76
2019-03-03T11:54:33.834Z,69.64
2019-03-03T11:55:33.843Z,69.67
2019-03-03T11:56:33.840Z,69.72
2019-03-03T11:57:33.824Z,69.69
2019-03-03T11:58:33.815Z,69.74
2019-03-03T11:59:33.872Z,69.62
2019-03-03T12:00:33.825Z,69.56
2019-03-03T12:01:33.830Z,69.57
2019-03-03T12:02:33.812Z,69.47
2019-03-03T12:03:33.799Z,69.72
2019-03-03T12:04:33.869Z,69.76
2019-03-03T12:05:33.858Z,69.93
2019-03-03T12:06:33.860Z,69.59
2019-03-03T12:07:33.819Z,69.52
2019-03-03T12:08:33.800Z,69.39
2019-03-03T12:09:33.840Z,69.32
2019-03-03T12:10:34.397Z,69.64
2019-03-03T12:11:33.793Z,69.55
2019-03-03T12:12:33.806Z,69.42
2019-03-03T12:13:33.804Z,69.29
2019-03-03T12:14:33.800Z,69.56
2019-03-03T12:15:33.787Z,69.29
2019-03-03T12:16:33.812Z,69.13
2019-03-03T12:17:35.421Z,69.15
2019-03-03T12:18:34.187Z,69.36
2019-03-03T12:19:33.820Z,69.45
2019-03-03T12:20:33.784Z,69.36
2019-03-03T12:21:33.814Z,69.09
2019-03-03T12:22:33.795Z,69.13
2019-03-03T12:23:33.795Z,69.06
2019-03-03T12:24:33.799Z,69.24
2019-03-03T12:25:33.780Z,69.22
2019-03-03T12:26:33.783Z,69.07
2019-03-03T12:27:33.795Z,68.57
2019-03-03T12:28:33.796Z,68.65
2019-03-03T12:29:33.789Z,68.3
2019-03-03T12:30:33.786Z,68.4
2019-03-03T12:31:33.829Z,68.45
2019-03-03T12:32:33.768Z,68.53
2019-03-03T12:33:33.790Z,68.52
2019-03-03T12:34:33.798Z,68.55
2019-03-03T12:35:33.842Z,68.48
2019-03-03T12:36:33.797Z,68.77
2019-03-03T12:37:33.795Z,68.5
2019-03-03T12:38:33.774Z,68.59
2019-03-03T12:39:33.771Z,68.43
2019-03-03T12:40:33.868Z,68.6
2019-03-03T12:41:33.766Z,68.64
2019-03-03T12:42:33.775Z,68.55
2019-03-03T12:43:33.776Z,68.57
2019-03-03T12:44:33.814Z,68.36
2019-03-03T12:45:33.771Z,68.36
2019-03-03T12:46:33.769Z,68.46
2019-03-03T12:47:33.820Z,68.56
2019-03-03T12:48:33.782Z,68.54
2019-03-03T12:49:33.770Z,68.42
2019-03-03T12:50:33.740Z,68.37
2019-03-03T12:51:33.830Z,68.32
2019-03-03T12:52:33.831Z,68.53
2019-03-03T12:53:34.920Z,68.55
2019-03-03T12:54:33.798Z,68.42
2019-03-03T12:55:33.761Z,68.42
2019-03-03T12:56:33.787Z,68.58